sensor_id;sensor_type;location;lat;lon;timestamp;P1;durP1;ratioP1;P2;durP2;ratioP2
68714;SDS011;55692;53.356;10.030;2023-10-09T00:00:34;6.35;;;2.42;;
68714;SDS011;55692;53.356;10.030;2023-10-09T00:03:03;4.07;;;1.40;;
68714;SDS011;55692;53.356;10.030;2023-10-09T00:05:32;3.25;;;1.35;;
68714;SDS011;55692;53.356;10.030;2023-10-09T00:08:14;5.30;;;1.30;;
68714;SDS011;55692;53.356;10.030;2023-10-09T00:10:50;6.32;;;1.73;;
68714;SDS011;55692;53.356;10.030;2023-10-09T00:13:25;6.07;;;2.45;;
68714;SDS011;55692;53.356;10.030;2023-10-09T00:15:56;4.60;;;1.70;;
68714;SDS011;55692;53.356;10.030;2023-10-09T00:18:26;4.82;;;1.75;;
68714;SDS011;55692;53.356;10.030;2023-10-09T00:20:58;3.33;;;1.50;;
68714;SDS011;55692;53.356;10.030;2023-10-09T00:23:40;5.03;;;1.52;;
68714;SDS011;55692;53.356;10.030;2023-10-09T00:26:10;2.72;;;1.52;;
68714;SDS011;55692;53.356;10.030;2023-10-09T00:28:41;8.93;;;1.63;;
68714;SDS011;55692;53.356;10.030;2023-10-09T00:31:12;3.70;;;1.55;;
68714;SDS011;55692;53.356;10.030;2023-10-09T00:33:42;2.53;;;1.30;;
68714;SDS011;55692;53.356;10.030;2023-10-09T00:36:08;5.57;;;1.80;;
68714;SDS011;55692;53.356;10.030;2023-10-09T00:38:35;6.53;;;1.58;;
68714;SDS011;55692;53.356;10.030;2023-10-09T00:41:01;11.05;;;1.67;;
68714;SDS011;55692;53.356;10.030;2023-10-09T00:43:32;7.18;;;1.58;;
68714;SDS011;55692;53.356;10.030;2023-10-09T00:46:01;8.43;;;1.98;;
68714;SDS011;55692;53.356;10.030;2023-10-09T00:48:28;3.92;;;1.80;;
68714;SDS011;55692;53.356;10.030;2023-10-09T00:51:03;8.23;;;1.95;;
68714;SDS011;55692;53.356;10.030;2023-10-09T00:53:45;11.98;;;1.90;;
68714;SDS011;55692;53.356;10.030;2023-10-09T00:56:16;18.50;;;2.03;;
68714;SDS011;55692;53.356;10.030;2023-10-09T00:58:54;6.45;;;1.85;;
68714;SDS011;55692;53.356;10.030;2023-10-09T01:01:24;5.72;;;2.10;;
68714;SDS011;55692;53.356;10.030;2023-10-09T01:03:59;5.97;;;1.73;;
68714;SDS011;55692;53.356;10.030;2023-10-09T01:06:30;9.32;;;1.85;;
68714;SDS011;55692;53.356;10.030;2023-10-09T01:08:59;6.20;;;2.53;;
68714;SDS011;55692;53.356;10.030;2023-10-09T01:11:35;8.35;;;1.73;;
68714;SDS011;55692;53.356;10.030;2023-10-09T01:14:12;3.00;;;1.67;;
68714;SDS011;55692;53.356;10.030;2023-10-09T01:16:38;3.58;;;1.77;;
68714;SDS011;55692;53.356;10.030;2023-10-09T01:19:09;2.83;;;1.88;;
68714;SDS011;55692;53.356;10.030;2023-10-09T01:21:39;9.10;;;2.42;;
68714;SDS011;55692;53.356;10.030;2023-10-09T01:24:05;5.40;;;2.00;;
68714;SDS011;55692;53.356;10.030;2023-10-09T01:26:40;7.80;;;1.90;;
68714;SDS011;55692;53.356;10.030;2023-10-09T01:29:11;5.35;;;1.88;;
68714;SDS011;55692;53.356;10.030;2023-10-09T01:34:38;8.77;;;2.35;;
68714;SDS011;55692;53.356;10.030;2023-10-09T01:37:03;6.70;;;2.00;;
68714;SDS011;55692;53.356;10.030;2023-10-09T01:39:31;4.22;;;2.30;;
68714;SDS011;55692;53.356;10.030;2023-10-09T01:42:05;4.85;;;2.20;;
68714;SDS011;55692;53.356;10.030;2023-10-09T01:44:32;10.35;;;2.25;;
68714;SDS011;55692;53.356;10.030;2023-10-09T01:47:06;10.40;;;2.25;;
68714;SDS011;55692;53.356;10.030;2023-10-09T01:49:39;8.05;;;1.98;;
68714;SDS011;55692;53.356;10.030;2023-10-09T01:52:14;6.22;;;1.95;;
68714;SDS011;55692;53.356;10.030;2023-10-09T01:54:46;7.68;;;2.40;;
68714;SDS011;55692;53.356;10.030;2023-10-09T01:57:14;5.07;;;2.03;;
68714;SDS011;55692;53.356;10.030;2023-10-09T01:59:43;5.53;;;2.05;;
68714;SDS011;55692;53.356;10.030;2023-10-09T02:02:12;6.57;;;2.13;;
68714;SDS011;55692;53.356;10.030;2023-10-09T02:04:55;9.88;;;2.33;;
68714;SDS011;55692;53.356;10.030;2023-10-09T02:07:32;7.60;;;2.47;;
68714;SDS011;55692;53.356;10.030;2023-10-09T02:10:06;5.63;;;2.17;;
68714;SDS011;55692;53.356;10.030;2023-10-09T02:12:36;5.38;;;2.20;;
68714;SDS011;55692;53.356;10.030;2023-10-09T02:15:03;7.43;;;2.35;;
68714;SDS011;55692;53.356;10.030;2023-10-09T02:17:40;4.55;;;2.03;;
68714;SDS011;55692;53.356;10.030;2023-10-09T02:20:17;6.70;;;2.70;;
68714;SDS011;55692;53.356;10.030;2023-10-09T02:22:53;5.95;;;2.33;;
68714;SDS011;55692;53.356;10.030;2023-10-09T02:25:19;3.80;;;2.15;;
68714;SDS011;55692;53.356;10.030;2023-10-09T02:27:47;6.60;;;2.13;;
68714;SDS011;55692;53.356;10.030;2023-10-09T02:30:20;5.00;;;2.17;;
68714;SDS011;55692;53.356;10.030;2023-10-09T02:32:52;7.47;;;2.23;;
68714;SDS011;55692;53.356;10.030;2023-10-09T02:35:31;10.25;;;2.00;;
68714;SDS011;55692;53.356;10.030;2023-10-09T02:38:04;5.70;;;1.88;;
68714;SDS011;55692;53.356;10.030;2023-10-09T02:40:32;4.75;;;2.33;;
68714;SDS011;55692;53.356;10.030;2023-10-09T02:43:07;5.63;;;1.90;;
68714;SDS011;55692;53.356;10.030;2023-10-09T02:45:37;6.60;;;2.42;;
68714;SDS011;55692;53.356;10.030;2023-10-09T02:48:15;4.68;;;2.47;;
68714;SDS011;55692;53.356;10.030;2023-10-09T02:50:41;11.10;;;2.28;;
68714;SDS011;55692;53.356;10.030;2023-10-09T02:53:09;6.10;;;2.17;;
68714;SDS011;55692;53.356;10.030;2023-10-09T02:55:43;5.03;;;2.20;;
68714;SDS011;55692;53.356;10.030;2023-10-09T02:58:18;7.35;;;2.00;;
68714;SDS011;55692;53.356;10.030;2023-10-09T03:00:48;5.45;;;2.15;;
68714;SDS011;55692;53.356;10.030;2023-10-09T03:03:14;9.80;;;2.15;;
68714;SDS011;55692;53.356;10.030;2023-10-09T03:05:43;12.68;;;3.03;;
68714;SDS011;55692;53.356;10.030;2023-10-09T03:08:09;6.85;;;2.10;;
68714;SDS011;55692;53.356;10.030;2023-10-09T03:10:37;9.98;;;1.90;;
68714;SDS011;55692;53.356;10.030;2023-10-09T03:13:06;4.72;;;2.15;;
68714;SDS011;55692;53.356;10.030;2023-10-09T03:15:32;4.18;;;2.33;;
68714;SDS011;55692;53.356;10.030;2023-10-09T03:18:02;7.30;;;2.22;;
68714;SDS011;55692;53.356;10.030;2023-10-09T03:20:29;7.72;;;2.40;;
68714;SDS011;55692;53.356;10.030;2023-10-09T03:22:55;7.00;;;1.70;;
68714;SDS011;55692;53.356;10.030;2023-10-09T03:25:22;8.13;;;2.10;;
68714;SDS011;55692;53.356;10.030;2023-10-09T03:27:50;6.35;;;1.88;;
68714;SDS011;55692;53.356;10.030;2023-10-09T03:30:18;7.43;;;2.15;;
68714;SDS011;55692;53.356;10.030;2023-10-09T03:32:48;12.48;;;2.28;;
68714;SDS011;55692;53.356;10.030;2023-10-09T03:35:18;9.23;;;2.67;;
68714;SDS011;55692;53.356;10.030;2023-10-09T03:40:17;6.72;;;2.05;;
68714;SDS011;55692;53.356;10.030;2023-10-09T03:42:44;5.57;;;2.40;;
68714;SDS011;55692;53.356;10.030;2023-10-09T03:45:10;5.70;;;2.17;;
68714;SDS011;55692;53.356;10.030;2023-10-09T03:47:50;4.80;;;1.75;;
68714;SDS011;55692;53.356;10.030;2023-10-09T03:50:21;6.65;;;2.20;;
68714;SDS011;55692;53.356;10.030;2023-10-09T03:53:00;8.70;;;1.80;;
68714;SDS011;55692;53.356;10.030;2023-10-09T03:55:27;6.75;;;1.73;;
68714;SDS011;55692;53.356;10.030;2023-10-09T03:57:54;5.30;;;2.35;;
68714;SDS011;55692;53.356;10.030;2023-10-09T04:00:23;8.95;;;2.22;;
68714;SDS011;55692;53.356;10.030;2023-10-09T04:02:56;5.70;;;2.03;;
68714;SDS011;55692;53.356;10.030;2023-10-09T04:05:22;5.65;;;1.98;;
68714;SDS011;55692;53.356;10.030;2023-10-09T04:07:48;3.03;;;1.73;;
68714;SDS011;55692;53.356;10.030;2023-10-09T04:10:16;5.80;;;1.95;;
68714;SDS011;55692;53.356;10.030;2023-10-09T04:13:00;4.15;;;1.52;;
68714;SDS011;55692;53.356;10.030;2023-10-09T04:15:28;8.38;;;2.00;;
68714;SDS011;55692;53.356;10.030;2023-10-09T04:17:56;2.97;;;1.73;;
68714;SDS011;55692;53.356;10.030;2023-10-09T04:20:22;4.90;;;1.85;;
68714;SDS011;55692;53.356;10.030;2023-10-09T04:22:48;8.77;;;2.20;;
68714;SDS011;55692;53.356;10.030;2023-10-09T04:25:18;7.00;;;1.80;;
68714;SDS011;55692;53.356;10.030;2023-10-09T04:27:52;2.90;;;1.40;;
68714;SDS011;55692;53.356;10.030;2023-10-09T04:30:25;6.15;;;1.42;;
68714;SDS011;55692;53.356;10.030;2023-10-09T04:32:51;7.05;;;1.77;;
68714;SDS011;55692;53.356;10.030;2023-10-09T04:35:20;7.63;;;2.08;;
68714;SDS011;55692;53.356;10.030;2023-10-09T04:37:54;3.60;;;1.52;;
68714;SDS011;55692;53.356;10.030;2023-10-09T04:40:32;6.28;;;1.50;;
68714;SDS011;55692;53.356;10.030;2023-10-09T04:43:17;4.90;;;1.60;;
68714;SDS011;55692;53.356;10.030;2023-10-09T04:45:47;6.13;;;1.95;;
68714;SDS011;55692;53.356;10.030;2023-10-09T04:48:33;3.55;;;1.48;;
68714;SDS011;55692;53.356;10.030;2023-10-09T04:51:03;2.63;;;1.65;;
68714;SDS011;55692;53.356;10.030;2023-10-09T04:53:59;3.95;;;1.70;;
68714;SDS011;55692;53.356;10.030;2023-10-09T04:56:38;3.20;;;1.70;;
68714;SDS011;55692;53.356;10.030;2023-10-09T04:59:16;6.85;;;2.00;;
68714;SDS011;55692;53.356;10.030;2023-10-09T05:01:43;6.30;;;2.08;;
68714;SDS011;55692;53.356;10.030;2023-10-09T05:04:11;4.88;;;1.70;;
68714;SDS011;55692;53.356;10.030;2023-10-09T05:07:00;8.40;;;2.22;;
68714;SDS011;55692;53.356;10.030;2023-10-09T05:09:46;4.68;;;1.90;;
68714;SDS011;55692;53.356;10.030;2023-10-09T05:12:33;6.97;;;2.25;;
68714;SDS011;55692;53.356;10.030;2023-10-09T05:14:59;9.45;;;2.95;;
68714;SDS011;55692;53.356;10.030;2023-10-09T05:17:35;4.63;;;1.85;;
68714;SDS011;55692;53.356;10.030;2023-10-09T05:20:03;6.90;;;1.90;;
68714;SDS011;55692;53.356;10.030;2023-10-09T05:22:47;6.00;;;2.25;;
68714;SDS011;55692;53.356;10.030;2023-10-09T05:25:26;6.10;;;2.22;;
68714;SDS011;55692;53.356;10.030;2023-10-09T05:28:18;4.53;;;2.05;;
68714;SDS011;55692;53.356;10.030;2023-10-09T05:30:51;6.47;;;2.35;;
68714;SDS011;55692;53.356;10.030;2023-10-09T05:33:46;6.55;;;2.33;;
68714;SDS011;55692;53.356;10.030;2023-10-09T05:36:12;6.00;;;2.30;;
68714;SDS011;55692;53.356;10.030;2023-10-09T05:38:50;10.60;;;2.33;;
68714;SDS011;55692;53.356;10.030;2023-10-09T05:41:35;7.07;;;2.33;;
68714;SDS011;55692;53.356;10.030;2023-10-09T05:44:12;5.00;;;2.95;;
68714;SDS011;55692;53.356;10.030;2023-10-09T05:46:57;7.00;;;2.53;;
68714;SDS011;55692;53.356;10.030;2023-10-09T05:49:42;8.90;;;3.15;;
68714;SDS011;55692;53.356;10.030;2023-10-09T05:52:14;6.07;;;2.63;;
68714;SDS011;55692;53.356;10.030;2023-10-09T05:54:58;7.28;;;2.85;;
68714;SDS011;55692;53.356;10.030;2023-10-09T05:57:40;9.20;;;2.72;;
68714;SDS011;55692;53.356;10.030;2023-10-09T06:00:22;7.82;;;2.10;;
68714;SDS011;55692;53.356;10.030;2023-10-09T06:03:06;4.45;;;2.10;;
68714;SDS011;55692;53.356;10.030;2023-10-09T06:05:47;5.38;;;2.20;;
68714;SDS011;55692;53.356;10.030;2023-10-09T06:08:26;6.55;;;2.60;;
68714;SDS011;55692;53.356;10.030;2023-10-09T06:11:13;5.63;;;2.47;;
68714;SDS011;55692;53.356;10.030;2023-10-09T06:13:58;5.28;;;2.10;;
68714;SDS011;55692;53.356;10.030;2023-10-09T06:16:37;6.35;;;2.30;;
68714;SDS011;55692;53.356;10.030;2023-10-09T06:19:04;9.77;;;2.45;;
68714;SDS011;55692;53.356;10.030;2023-10-09T06:21:33;5.88;;;2.60;;
68714;SDS011;55692;53.356;10.030;2023-10-09T06:24:21;5.03;;;2.40;;
68714;SDS011;55692;53.356;10.030;2023-10-09T06:27:19;4.05;;;2.33;;
68714;SDS011;55692;53.356;10.030;2023-10-09T06:30:09;4.20;;;2.42;;
68714;SDS011;55692;53.356;10.030;2023-10-09T06:32:44;5.75;;;2.17;;
68714;SDS011;55692;53.356;10.030;2023-10-09T06:35:23;6.20;;;2.50;;
68714;SDS011;55692;53.356;10.030;2023-10-09T06:37:58;7.68;;;3.00;;
68714;SDS011;55692;53.356;10.030;2023-10-09T06:40:31;7.28;;;3.17;;
68714;SDS011;55692;53.356;10.030;2023-10-09T06:43:04;6.38;;;3.03;;
68714;SDS011;55692;53.356;10.030;2023-10-09T06:45:37;6.45;;;2.92;;
68714;SDS011;55692;53.356;10.030;2023-10-09T06:48:09;9.00;;;2.90;;
68714;SDS011;55692;53.356;10.030;2023-10-09T06:50:54;4.57;;;2.65;;
68714;SDS011;55692;53.356;10.030;2023-10-09T06:53:21;5.15;;;2.65;;
68714;SDS011;55692;53.356;10.030;2023-10-09T06:55:53;6.70;;;2.93;;
68714;SDS011;55692;53.356;10.030;2023-10-09T06:58:31;7.18;;;2.88;;
68714;SDS011;55692;53.356;10.030;2023-10-09T07:01:12;6.60;;;3.20;;
68714;SDS011;55692;53.356;10.030;2023-10-09T07:03:45;5.95;;;2.97;;
68714;SDS011;55692;53.356;10.030;2023-10-09T07:06:25;3.67;;;2.75;;
68714;SDS011;55692;53.356;10.030;2023-10-09T07:09:00;5.88;;;2.53;;
68714;SDS011;55692;53.356;10.030;2023-10-09T07:11:35;4.97;;;2.60;;
68714;SDS011;55692;53.356;10.030;2023-10-09T07:16:56;7.40;;;2.78;;
68714;SDS011;55692;53.356;10.030;2023-10-09T07:19:29;7.85;;;3.20;;
68714;SDS011;55692;53.356;10.030;2023-10-09T07:22:10;8.32;;;3.20;;
68714;SDS011;55692;53.356;10.030;2023-10-09T07:24:48;7.03;;;2.95;;
68714;SDS011;55692;53.356;10.030;2023-10-09T07:27:17;6.13;;;2.75;;
68714;SDS011;55692;53.356;10.030;2023-10-09T07:30:04;9.70;;;3.47;;
68714;SDS011;55692;53.356;10.030;2023-10-09T07:32:50;6.53;;;3.08;;
68714;SDS011;55692;53.356;10.030;2023-10-09T07:35:19;6.82;;;2.95;;
68714;SDS011;55692;53.356;10.030;2023-10-09T07:38:05;5.90;;;3.00;;
68714;SDS011;55692;53.356;10.030;2023-10-09T07:40:34;9.70;;;3.15;;
68714;SDS011;55692;53.356;10.030;2023-10-09T07:43:17;13.77;;;3.08;;
68714;SDS011;55692;53.356;10.030;2023-10-09T07:45:43;5.65;;;2.97;;
68714;SDS011;55692;53.356;10.030;2023-10-09T07:48:15;12.53;;;4.00;;
68714;SDS011;55692;53.356;10.030;2023-10-09T07:50:41;6.07;;;2.63;;
68714;SDS011;55692;53.356;10.030;2023-10-09T07:53:13;6.22;;;3.13;;
68714;SDS011;55692;53.356;10.030;2023-10-09T07:55:55;6.28;;;3.10;;
68714;SDS011;55692;53.356;10.030;2023-10-09T07:58:31;6.63;;;2.83;;
68714;SDS011;55692;53.356;10.030;2023-10-09T08:00:58;7.00;;;3.55;;
68714;SDS011;55692;53.356;10.030;2023-10-09T08:03:40;5.88;;;3.60;;
68714;SDS011;55692;53.356;10.030;2023-10-09T08:06:10;5.60;;;3.22;;
68714;SDS011;55692;53.356;10.030;2023-10-09T08:08:55;6.65;;;2.85;;
68714;SDS011;55692;53.356;10.030;2023-10-09T08:11:28;5.55;;;2.72;;
68714;SDS011;55692;53.356;10.030;2023-10-09T08:14:07;5.35;;;3.35;;
68714;SDS011;55692;53.356;10.030;2023-10-09T08:16:46;7.63;;;2.78;;
68714;SDS011;55692;53.356;10.030;2023-10-09T08:19:12;4.45;;;3.05;;
68714;SDS011;55692;53.356;10.030;2023-10-09T08:21:57;3.38;;;2.13;;
68714;SDS011;55692;53.356;10.030;2023-10-09T08:24:41;4.97;;;2.55;;
68714;SDS011;55692;53.356;10.030;2023-10-09T08:27:09;4.40;;;2.40;;
68714;SDS011;55692;53.356;10.030;2023-10-09T08:30:13;4.80;;;2.58;;
68714;SDS011;55692;53.356;10.030;2023-10-09T08:32:53;3.63;;;2.25;;
68714;SDS011;55692;53.356;10.030;2023-10-09T08:35:32;3.25;;;2.55;;
68714;SDS011;55692;53.356;10.030;2023-10-09T08:43:06;4.70;;;2.60;;
68714;SDS011;55692;53.356;10.030;2023-10-09T08:45:34;3.80;;;2.33;;
68714;SDS011;55692;53.356;10.030;2023-10-09T08:48:01;3.30;;;1.80;;
68714;SDS011;55692;53.356;10.030;2023-10-09T08:50:30;4.00;;;2.35;;
68714;SDS011;55692;53.356;10.030;2023-10-09T08:52:56;2.95;;;2.15;;
68714;SDS011;55692;53.356;10.030;2023-10-09T08:55:22;2.53;;;1.85;;
68714;SDS011;55692;53.356;10.030;2023-10-09T08:57:48;2.92;;;2.03;;
68714;SDS011;55692;53.356;10.030;2023-10-09T09:00:17;3.13;;;2.03;;
68714;SDS011;55692;53.356;10.030;2023-10-09T09:02:58;5.22;;;2.10;;
68714;SDS011;55692;53.356;10.030;2023-10-09T09:05:28;3.20;;;2.00;;
68714;SDS011;55692;53.356;10.030;2023-10-09T09:07:54;3.40;;;1.80;;
68714;SDS011;55692;53.356;10.030;2023-10-09T09:10:27;3.97;;;2.15;;
68714;SDS011;55692;53.356;10.030;2023-10-09T09:13:01;3.67;;;2.17;;
68714;SDS011;55692;53.356;10.030;2023-10-09T09:15:29;3.55;;;1.90;;
68714;SDS011;55692;53.356;10.030;2023-10-09T09:18:05;3.00;;;1.83;;
68714;SDS011;55692;53.356;10.030;2023-10-09T09:20:31;2.80;;;2.03;;
68714;SDS011;55692;53.356;10.030;2023-10-09T09:23:10;3.55;;;1.73;;
68714;SDS011;55692;53.356;10.030;2023-10-09T09:25:46;4.63;;;2.20;;
68714;SDS011;55692;53.356;10.030;2023-10-09T09:28:13;5.25;;;2.10;;
68714;SDS011;55692;53.356;10.030;2023-10-09T09:30:45;3.88;;;1.90;;
68714;SDS011;55692;53.356;10.030;2023-10-09T09:36:04;4.13;;;2.45;;
68714;SDS011;55692;53.356;10.030;2023-10-09T09:38:31;4.28;;;2.38;;
68714;SDS011;55692;53.356;10.030;2023-10-09T09:41:08;3.65;;;2.40;;
68714;SDS011;55692;53.356;10.030;2023-10-09T09:43:34;4.30;;;2.95;;
68714;SDS011;55692;53.356;10.030;2023-10-09T09:46:05;5.70;;;2.28;;
68714;SDS011;55692;53.356;10.030;2023-10-09T09:48:34;5.95;;;2.97;;
68714;SDS011;55692;53.356;10.030;2023-10-09T09:51:04;6.38;;;2.70;;
68714;SDS011;55692;53.356;10.030;2023-10-09T09:53:33;4.05;;;2.55;;
68714;SDS011;55692;53.356;10.030;2023-10-09T09:55:59;4.18;;;2.25;;
68714;SDS011;55692;53.356;10.030;2023-10-09T09:58:27;5.35;;;2.15;;
68714;SDS011;55692;53.356;10.030;2023-10-09T10:01:07;3.80;;;2.60;;
68714;SDS011;55692;53.356;10.030;2023-10-09T10:04:05;4.65;;;2.50;;
68714;SDS011;55692;53.356;10.030;2023-10-09T10:06:39;2.83;;;1.98;;
68714;SDS011;55692;53.356;10.030;2023-10-09T10:09:08;4.07;;;2.30;;
68714;SDS011;55692;53.356;10.030;2023-10-09T10:11:44;4.45;;;2.30;;
68714;SDS011;55692;53.356;10.030;2023-10-09T10:14:11;4.03;;;2.28;;
68714;SDS011;55692;53.356;10.030;2023-10-09T10:19:58;4.82;;;2.38;;
68714;SDS011;55692;53.356;10.030;2023-10-09T10:22:29;3.33;;;1.95;;
68714;SDS011;55692;53.356;10.030;2023-10-09T10:24:55;2.40;;;1.67;;
68714;SDS011;55692;53.356;10.030;2023-10-09T10:27:34;2.45;;;1.52;;
68714;SDS011;55692;53.356;10.030;2023-10-09T10:32:57;2.58;;;1.70;;
68714;SDS011;55692;53.356;10.030;2023-10-09T10:35:23;2.28;;;1.77;;
68714;SDS011;55692;53.356;10.030;2023-10-09T10:38:25;2.42;;;1.70;;
68714;SDS011;55692;53.356;10.030;2023-10-09T10:41:12;3.20;;;1.50;;
68714;SDS011;55692;53.356;10.030;2023-10-09T10:43:41;2.75;;;1.70;;
68714;SDS011;55692;53.356;10.030;2023-10-09T10:46:14;2.83;;;1.58;;
68714;SDS011;55692;53.356;10.030;2023-10-09T10:49:10;4.25;;;1.58;;
68714;SDS011;55692;53.356;10.030;2023-10-09T10:51:37;12.48;;;4.05;;
68714;SDS011;55692;53.356;10.030;2023-10-09T10:54:04;3.72;;;2.17;;
68714;SDS011;55692;53.356;10.030;2023-10-09T10:56:53;8.10;;;1.58;;
68714;SDS011;55692;53.356;10.030;2023-10-09T10:59:22;3.42;;;1.77;;
68714;SDS011;55692;53.356;10.030;2023-10-09T11:01:50;2.03;;;1.48;;
68714;SDS011;55692;53.356;10.030;2023-10-09T11:04:38;2.83;;;1.90;;
68714;SDS011;55692;53.356;10.030;2023-10-09T11:07:05;2.00;;;1.40;;
68714;SDS011;55692;53.356;10.030;2023-10-09T11:15:10;8.10;;;2.10;;
68714;SDS011;55692;53.356;10.030;2023-10-09T11:17:57;1.65;;;1.27;;
68714;SDS011;55692;53.356;10.030;2023-10-09T11:20:23;1.55;;;1.27;;
68714;SDS011;55692;53.356;10.030;2023-10-09T11:22:51;3.67;;;1.40;;
68714;SDS011;55692;53.356;10.030;2023-10-09T11:25:36;1.70;;;1.20;;
68714;SDS011;55692;53.356;10.030;2023-10-09T11:28:15;1.42;;;1.10;;
68714;SDS011;55692;53.356;10.030;2023-10-09T11:30:53;2.17;;;1.27;;
68714;SDS011;55692;53.356;10.030;2023-10-09T11:33:20;1.30;;;0.90;;
68714;SDS011;55692;53.356;10.030;2023-10-09T11:35:56;2.17;;;1.17;;
68714;SDS011;55692;53.356;10.030;2023-10-09T11:38:23;1.73;;;1.10;;
68714;SDS011;55692;53.356;10.030;2023-10-09T11:40:50;2.00;;;1.20;;
68714;SDS011;55692;53.356;10.030;2023-10-09T11:43:19;1.45;;;0.82;;
68714;SDS011;55692;53.356;10.030;2023-10-09T11:46:10;2.90;;;1.00;;
68714;SDS011;55692;53.356;10.030;2023-10-09T11:48:36;1.25;;;1.10;;
68714;SDS011;55692;53.356;10.030;2023-10-09T11:51:12;1.83;;;1.05;;
68714;SDS011;55692;53.356;10.030;2023-10-09T11:53:44;3.30;;;1.17;;
68714;SDS011;55692;53.356;10.030;2023-10-09T11:56:13;1.98;;;1.25;;
68714;SDS011;55692;53.356;10.030;2023-10-09T11:58:42;22.50;;;1.88;;
68714;SDS011;55692;53.356;10.030;2023-10-09T12:01:13;1.52;;;1.15;;
68714;SDS011;55692;53.356;10.030;2023-10-09T12:03:42;2.22;;;1.20;;
68714;SDS011;55692;53.356;10.030;2023-10-09T12:06:14;1.98;;;1.15;;
68714;SDS011;55692;53.356;10.030;2023-10-09T12:08:43;2.72;;;1.20;;
68714;SDS011;55692;53.356;10.030;2023-10-09T12:11:12;3.85;;;1.20;;
68714;SDS011;55692;53.356;10.030;2023-10-09T12:13:39;1.02;;;0.93;;
68714;SDS011;55692;53.356;10.030;2023-10-09T12:16:08;1.73;;;1.30;;
68714;SDS011;55692;53.356;10.030;2023-10-09T12:18:34;1.30;;;0.90;;
68714;SDS011;55692;53.356;10.030;2023-10-09T12:21:02;1.48;;;1.13;;
68714;SDS011;55692;53.356;10.030;2023-10-09T12:23:29;1.80;;;1.30;;
68714;SDS011;55692;53.356;10.030;2023-10-09T12:26:00;2.53;;;1.13;;
68714;SDS011;55692;53.356;10.030;2023-10-09T12:28:26;2.35;;;1.13;;
68714;SDS011;55692;53.356;10.030;2023-10-09T12:30:53;3.20;;;0.90;;
68714;SDS011;55692;53.356;10.030;2023-10-09T12:33:20;1.90;;;1.40;;
68714;SDS011;55692;53.356;10.030;2023-10-09T12:35:56;1.00;;;0.88;;
68714;SDS011;55692;53.356;10.030;2023-10-09T12:38:28;1.70;;;1.20;;
68714;SDS011;55692;53.356;10.030;2023-10-09T12:41:07;1.77;;;1.23;;
68714;SDS011;55692;53.356;10.030;2023-10-09T12:43:43;4.07;;;1.63;;
68714;SDS011;55692;53.356;10.030;2023-10-09T12:46:09;2.58;;;1.80;;
68714;SDS011;55692;53.356;10.030;2023-10-09T12:48:35;2.13;;;1.73;;
68714;SDS011;55692;53.356;10.030;2023-10-09T12:51:02;2.30;;;1.60;;
68714;SDS011;55692;53.356;10.030;2023-10-09T12:53:32;1.80;;;1.27;;
68714;SDS011;55692;53.356;10.030;2023-10-09T12:55:58;2.88;;;1.67;;
68714;SDS011;55692;53.356;10.030;2023-10-09T12:58:24;3.88;;;1.52;;
68714;SDS011;55692;53.356;10.030;2023-10-09T13:00:52;2.33;;;1.65;;
68714;SDS011;55692;53.356;10.030;2023-10-09T13:03:18;2.28;;;1.60;;
68714;SDS011;55692;53.356;10.030;2023-10-09T13:05:50;1.67;;;1.42;;
68714;SDS011;55692;53.356;10.030;2023-10-09T13:08:26;3.67;;;1.73;;
68714;SDS011;55692;53.356;10.030;2023-10-09T13:11:08;3.33;;;1.88;;
68714;SDS011;55692;53.356;10.030;2023-10-09T13:13:42;2.53;;;1.65;;
68714;SDS011;55692;53.356;10.030;2023-10-09T13:16:10;2.17;;;1.45;;
68714;SDS011;55692;53.356;10.030;2023-10-09T13:18:41;6.03;;;1.80;;
68714;SDS011;55692;53.356;10.030;2023-10-09T13:21:15;1.70;;;1.35;;
68714;SDS011;55692;53.356;10.030;2023-10-09T13:23:41;3.42;;;1.83;;
68714;SDS011;55692;53.356;10.030;2023-10-09T13:26:12;6.75;;;2.17;;
68714;SDS011;55692;53.356;10.030;2023-10-09T13:28:50;2.95;;;1.92;;
68714;SDS011;55692;53.356;10.030;2023-10-09T13:31:16;3.10;;;1.85;;
68714;SDS011;55692;53.356;10.030;2023-10-09T13:33:43;3.92;;;2.10;;
68714;SDS011;55692;53.356;10.030;2023-10-09T13:36:12;3.47;;;2.22;;
68714;SDS011;55692;53.356;10.030;2023-10-09T13:38:51;4.82;;;2.05;;
68714;SDS011;55692;53.356;10.030;2023-10-09T13:41:18;2.85;;;1.90;;
68714;SDS011;55692;53.356;10.030;2023-10-09T13:43:44;1.80;;;1.35;;
68714;SDS011;55692;53.356;10.030;2023-10-09T13:46:10;4.40;;;1.75;;
68714;SDS011;55692;53.356;10.030;2023-10-09T13:48:37;1.77;;;1.63;;
68714;SDS011;55692;53.356;10.030;2023-10-09T13:51:09;2.60;;;2.10;;
68714;SDS011;55692;53.356;10.030;2023-10-09T13:53:42;2.60;;;2.00;;
68714;SDS011;55692;53.356;10.030;2023-10-09T13:56:14;4.63;;;1.83;;
68714;SDS011;55692;53.356;10.030;2023-10-09T13:58:43;2.97;;;2.03;;
68714;SDS011;55692;53.356;10.030;2023-10-09T14:01:09;3.30;;;2.20;;
68714;SDS011;55692;53.356;10.030;2023-10-09T14:03:35;3.28;;;2.38;;
68714;SDS011;55692;53.356;10.030;2023-10-09T14:06:03;3.80;;;2.30;;
68714;SDS011;55692;53.356;10.030;2023-10-09T14:08:37;5.55;;;2.60;;
68714;SDS011;55692;53.356;10.030;2023-10-09T14:11:09;3.42;;;2.38;;
68714;SDS011;55692;53.356;10.030;2023-10-09T14:13:41;3.80;;;2.20;;
68714;SDS011;55692;53.356;10.030;2023-10-09T14:16:07;3.67;;;1.95;;
68714;SDS011;55692;53.356;10.030;2023-10-09T14:18:49;7.43;;;2.85;;
68714;SDS011;55692;53.356;10.030;2023-10-09T14:21:18;3.53;;;2.00;;
68714;SDS011;55692;53.356;10.030;2023-10-09T14:23:44;3.92;;;2.47;;
68714;SDS011;55692;53.356;10.030;2023-10-09T14:26:12;2.95;;;2.25;;
68714;SDS011;55692;53.356;10.030;2023-10-09T14:28:38;2.97;;;2.28;;
68714;SDS011;55692;53.356;10.030;2023-10-09T14:31:04;3.65;;;2.25;;
68714;SDS011;55692;53.356;10.030;2023-10-09T14:33:36;3.97;;;2.33;;
68714;SDS011;55692;53.356;10.030;2023-10-09T14:36:02;3.60;;;2.38;;
68714;SDS011;55692;53.356;10.030;2023-10-09T14:38:30;2.33;;;1.70;;
68714;SDS011;55692;53.356;10.030;2023-10-09T14:40:58;2.85;;;1.85;;
68714;SDS011;55692;53.356;10.030;2023-10-09T14:43:25;2.67;;;1.95;;
68714;SDS011;55692;53.356;10.030;2023-10-09T14:45:58;3.38;;;2.13;;
68714;SDS011;55692;53.356;10.030;2023-10-09T14:48:24;3.00;;;2.20;;
68714;SDS011;55692;53.356;10.030;2023-10-09T14:50:53;3.95;;;2.15;;
68714;SDS011;55692;53.356;10.030;2023-10-09T14:53:20;2.90;;;2.17;;
68714;SDS011;55692;53.356;10.030;2023-10-09T14:55:53;3.22;;;1.70;;
68714;SDS011;55692;53.356;10.030;2023-10-09T14:58:19;2.75;;;1.75;;
68714;SDS011;55692;53.356;10.030;2023-10-09T15:00:45;2.60;;;1.40;;
68714;SDS011;55692;53.356;10.030;2023-10-09T15:03:14;3.38;;;1.60;;
68714;SDS011;55692;53.356;10.030;2023-10-09T15:05:43;3.83;;;1.45;;
68714;SDS011;55692;53.356;10.030;2023-10-09T15:08:09;4.38;;;1.75;;
68714;SDS011;55692;53.356;10.030;2023-10-09T15:10:57;3.47;;;1.50;;
68714;SDS011;55692;53.356;10.030;2023-10-09T15:13:23;1.73;;;1.10;;
68714;SDS011;55692;53.356;10.030;2023-10-09T15:15:55;4.40;;;1.33;;
68714;SDS011;55692;53.356;10.030;2023-10-09T15:18:22;3.55;;;1.13;;
68714;SDS011;55692;53.356;10.030;2023-10-09T15:20:48;2.45;;;1.10;;
68714;SDS011;55692;53.356;10.030;2023-10-09T15:23:16;1.92;;;1.40;;
68714;SDS011;55692;53.356;10.030;2023-10-09T15:25:45;3.05;;;1.42;;
68714;SDS011;55692;53.356;10.030;2023-10-09T15:28:14;3.15;;;1.45;;
68714;SDS011;55692;53.356;10.030;2023-10-09T15:30:40;1.85;;;0.95;;
68714;SDS011;55692;53.356;10.030;2023-10-09T15:33:07;1.95;;;1.30;;